Latest Coastal Weather Observations for Red Rocks Point

IDW60701

Issued at 12:35 pm WST Sunday 20 April 2014 (issued every 10 minutes, with the page automatically refreshed every 10 minutes)

About coastal observations | Map of coastal stations | Coastal observations for WA | Marine services | Other Formats
Station Details ID: 011053 Name: RED ROCKS POINT Lat: -32.20 Lon: 127.53 Height: 3.1 m
Data from the previous 72 hours. | See also: Recent months for locations in Western Australia
Date/Time
WST
Temp

°C
Wind Pressure Rain
since 9am
mm
Weather Cloud Vis
km
Sea
Height
m
Swell
Dir
 
Speed
knots
Gust
knots
hPa Trend Height
m
Period
s
Dir
20/12:30pm 24.4 S 8 11 1009.6 - 0.0 - - - - - - -
20/12:00pm 24.1 S 6 8 1010.1 - 0.0 - - - - - - -
20/11:30am 23.5 S 6 8 1010.6 - 0.0 - - - - - - -
20/11:00am 24.1 S 8 9 1010.8 - 0.0 - - - - - - -
20/10:30am 23.7 S 8 9 1011.3 - 0.0 - - - - - - -
20/10:00am 23.6 S 7 9 1011.7 - 0.0 - - - - - - -
20/09:30am 24.7 SSW 6 8 1011.9 - 0.0 - - - - - - -
20/09:00am 24.2 SW 6 8 1012.2 - 0.0 - - - - - - -
20/08:30am 22.8 WSW 7 9 1012.5 - 0.0 - - - - - - -
20/08:00am 21.1 WNW 7 10 1012.6 - 0.0 - - - - - - -
20/07:30am 20.0 WNW 8 12 1012.6 - 0.0 - - - - - - -
20/07:00am 18.0 N 10 13 1012.0 - 0.0 - - - - - - -
20/06:30am 16.5 N 11 14 1011.9 - 0.0 - - - - - - -
20/06:00am 16.6 N 11 15 1011.8 - 0.0 - - - - - - -
20/05:30am 16.2 N 11 15 1011.7 - 0.0 - - - - - - -
20/05:00am 16.1 N 12 16 1011.7 - 0.0 - - - - - - -
20/04:30am 16.9 N 12 16 1011.7 - 0.0 - - - - - - -
20/04:00am 16.7 N 11 14 1011.7 - 0.0 - - - - - - -
20/03:30am 16.5 N 11 14 1011.7 - 0.0 - - - - - - -
20/03:00am 16.6 N 10 14 1012.0 - 0.0 - - - - - - -
20/02:30am 16.6 N 10 13 1012.1 - 0.0 - - - - - - -
20/02:00am 16.2 N 8 11 1012.6 - 0.0 - - - - - - -
20/01:30am 16.7 N 10 15 1012.7 - 0.0 - - - - - - -
20/01:00am 17.0 N 10 14 1012.9 - 0.0 - - - - - - -
20/12:30am 16.9 N 10 14 1013.0 - 0.0 - - - - - - -
20/12:00am 16.8 N 8 12 1013.2 - 0.0 - - - - - - -
 
Date/Time
WST
Temp

°C
Wind Pressure Rain
since 9am
mm
Weather Cloud Vis
km
Sea
Height
m
Swell
Dir
 
Speed
knots
Gust
knots
hPa Trend Height
m
Period
s
Dir
19/11:30pm 16.0 NNE 7 9 1013.4 - 0.0 - - - - - - -
19/11:00pm 15.6 CALM 0 0 1013.7 - 0.0 - - - - - - -
19/10:30pm 15.6 NNE 5 6 1013.8 - 0.0 - - - - - - -
19/10:00pm 16.1 NE 5 6 1014.0 - 0.0 - - - - - - -
19/09:30pm 17.0 NE 6 8 1014.3 - 0.0 - - - - - - -
19/09:00pm 17.7 NE 7 9 1014.3 - 0.0 - - - - - - -
19/08:30pm 18.6 NE 7 11 1014.4 - 0.0 - - - - - - -
19/08:00pm 20.1 ENE 12 14 1014.5 - 0.0 - - - - - - -
19/07:30pm 20.3 ENE 14 17 1014.3 - 0.0 - - - - - - -
19/07:00pm 20.6 ENE 16 17 1014.3 - 0.0 - - - - - - -
19/06:30pm 20.6 ENE 15 17 1014.2 - 0.0 - - - - - - -
19/06:00pm 20.6 ENE 15 19 1014.1 - 0.0 - - - - - - -
19/05:30pm 20.5 E 14 18 1014.1 - 0.0 - - - - - - -
19/05:00pm 20.6 E 14 17 1013.9 - 0.0 - - - - - - -
19/04:30pm 20.8 E 16 19 1013.9 - 0.0 - - - - - - -
19/04:00pm 21.1 E 16 19 1013.8 - 0.0 - - - - - - -
19/03:30pm 21.3 E 14 17 1014.1 - 0.0 - - - - - - -
19/03:00pm 21.5 E 14 17 1014.1 - 0.0 - - - - - - -
19/02:30pm 22.0 E 13 16 1014.2 - 0.0 - - - - - - -
19/02:00pm 21.9 E 15 18 1014.3 - 0.0 - - - - - - -
19/01:30pm 22.2 ESE 16 18 1014.8 - 0.0 - - - - - - -
19/01:00pm 23.8 E 12 15 1015.1 - 0.0 - - - - - - -
19/12:58pm 24.1 ESE 12 15 1015.0 - 0.0 - - - - - - -
19/12:30pm 29.5 NNE 9 13 1015.3 - 0.0 - - - - - - -
19/12:00pm 28.4 NNE 11 15 1015.9 - 0.0 - - - - - - -
19/11:30am 27.1 NNE 11 15 1016.7 - 0.0 - - - - - - -
19/11:00am 26.4 N 11 15 1017.5 - 0.0 - - - - - - -
19/10:30am 25.0 NNE 10 14 1018.2 - 0.0 - - - - - - -
19/10:00am 24.3 NE 9 13 1018.7 - 0.0 - - - - - - -
19/09:30am 22.8 NNE 9 12 1019.3 - 0.0 - - - - - - -
19/09:00am 21.2 NNE 10 14 1019.8 - 0.0 - - - - - - -
19/08:30am 19.9 NE 12 16 1020.2 - 0.0 - - - - - - -
19/08:00am 18.8 NNE 9 13 1020.5 - 0.0 - - - - - - -
19/07:30am 17.2 NNE 9 14 1020.6 - 0.0 - - - - - - -
19/07:00am 15.8 N 8 12 1020.5 - 0.0 - - - - - - -
19/06:30am 15.5 N 10 14 1020.3 - 0.0 - - - - - - -
19/06:00am 16.0 N 10 13 1020.2 - 0.0 - - - - - - -
19/05:30am 15.9 N 9 12 1020.1 - 0.0 - - - - - - -
19/05:00am 15.9 N 10 14 1020.1 - 0.0 - - - - - - -
19/04:30am 15.6 N 8 11 1020.3 - 0.0 - - - - - - -
19/04:00am 15.6 NNE 8 10 1020.1 - 0.0 - - - - - - -
19/03:30am 15.8 NE 6 10 1020.4 - 0.0 - - - - - - -
19/03:00am 15.7 NE 6 9 1020.5 - 0.0 - - - - - - -
19/02:30am 15.8 NNE 6 8 1020.5 - 0.0 - - - - - - -
19/02:00am 16.2 NE 7 9 1020.5 - 0.0 - - - - - - -
19/01:30am 16.3 NNE 7 9 1020.6 - 0.0 - - - - - - -
19/01:00am 16.9 NE 6 8 1020.8 - 0.0 - - - - - - -
19/12:30am 17.4 NE 7 9 1021.1 - 0.0 - - - - - - -
19/12:00am 17.9 NE 7 8 1021.2 - 0.0 - - - - - - -
 
Date/Time
WST
Temp

°C
Wind Pressure Rain
since 9am
mm
Weather Cloud Vis
km
Sea
Height
m
Swell
Dir
 
Speed
knots
Gust
knots
hPa Trend Height
m
Period
s
Dir
18/11:30pm 18.3 NE 6 8 1021.5 - 0.0 - - - - - - -
18/11:00pm 19.3 ENE 15 16 1021.3 - 0.0 - - - - - - -
18/10:30pm 19.4 E 14 16 1021.5 - 0.0 - - - - - - -
18/10:00pm 19.6 E 14 16 1021.8 - 0.0 - - - - - - -
18/09:30pm 19.7 E 14 16 1022.1 - 0.0 - - - - - - -
18/09:00pm 19.6 E 13 15 1022.2 - 0.0 - - - - - - -
18/08:30pm 19.5 E 13 15 1022.3 - 0.0 - - - - - - -
18/08:00pm 19.5 E 12 14 1022.5 - 0.0 - - - - - - -
18/07:30pm 19.6 ESE 12 14 1022.4 - 0.0 - - - - - - -
18/07:00pm 19.5 ESE 11 14 1022.3 - 0.0 - - - - - - -
18/06:30pm 19.4 ESE 11 13 1022.3 - 0.0 - - - - - - -
18/06:00pm 19.6 SE 13 15 1022.2 - 0.0 - - - - - - -
18/05:30pm 19.7 ESE 12 14 1022.2 - 0.0 - - - - - - -
18/05:00pm 19.6 SE 12 14 1022.2 - 0.0 - - - - - - -
18/04:30pm 19.8 SE 12 15 1022.1 - 0.0 - - - - - - -
18/04:00pm 20.2 SE 12 14 1022.1 - 0.0 - - - - - - -
18/03:30pm 20.5 SE 11 14 1022.1 - 0.0 - - - - - - -
18/03:00pm 20.9 SE 11 13 1022.0 - 0.0 - - - - - - -
18/02:30pm 21.2 SE 11 13 1022.1 - 0.0 - - - - - - -
18/02:00pm 21.3 SE 10 12 1022.4 - 0.0 - - - - - - -
18/01:30pm 21.9 SE 10 12 1022.5 - 0.0 - - - - - - -
18/01:00pm 22.1 SE 9 11 1022.5 - 0.0 - - - - - - -
18/12:30pm 22.0 SE 8 10 1022.7 - 0.0 - - - - - - -
18/12:00pm 21.6 SE 9 11 1023.2 - 0.0 - - - - - - -
18/11:30am 22.3 SE 9 11 1023.5 - 0.0 - - - - - - -
18/11:00am 23.0 ESE 9 11 1023.9 - 0.0 - - - - - - -
18/10:30am 22.5 SE 9 11 1024.3 - 0.0 - - - - - - -
18/10:00am 21.9 SE 9 11 1024.3 - 0.0 - - - - - - -
18/09:30am 22.0 ESE 9 11 1024.4 - 0.0 - - - - - - -
18/09:00am 21.4 ESE 10 13 1024.4 - 0.0 - - - - - - -
18/08:30am 21.2 ESE 10 13 1024.4 - 0.0 - - - - - - -
18/08:00am 20.7 ESE 11 13 1024.3 - 0.0 - - - - - - -
18/07:30am 20.1 ESE 10 13 1024.1 - 0.0 - - - - - - -
18/07:00am 19.9 SE 9 12 1023.8 - 0.0 - - - - - - -
18/06:30am 19.3 SE 10 11 1023.6 - 0.0 - - - - - - -
18/06:00am 19.2 SE 10 11 1023.3 - 0.0 - - - - - - -
18/05:30am 19.2 SE 12 14 1023.1 - 0.0 - - - - - - -
18/05:00am 19.4 SE 14 16 1022.8 - 0.0 - - - - - - -
18/04:30am 19.2 SSE 14 16 1022.7 - 0.0 - - - - - - -
18/04:00am 19.3 SSE 15 17 1022.5 - 0.0 - - - - - - -
18/03:30am 19.2 SSE 15 17 1022.3 - 0.0 - - - - - - -
18/03:00am 19.5 SSE 16 18 1022.1 - 0.0 - - - - - - -
18/02:30am 19.5 SSE 15 17 1021.8 - 0.0 - - - - - - -
18/02:00am 19.7 SSE 14 16 1021.9 - 0.0 - - - - - - -
18/01:30am 19.8 SSE 15 17 1022.1 - 0.0 - - - - - - -
18/01:00am 19.9 SSE 16 19 1022.2 - 0.0 - - - - - - -
18/12:30am 19.8 SSE 17 19 1022.0 - 0.0 - - - - - - -
18/12:00am 19.8 S 17 20 1022.0 - 0.0 - - - - - - -
 
Date/Time
WST
Temp

°C
Wind Pressure Rain
since 9am
mm
Weather Cloud Vis
km
Sea
Height
m
Swell
Dir
 
Speed
knots
Gust
knots
hPa Trend Height
m
Period
s
Dir
17/11:30pm 19.9 S 16 19 1022.0 - 0.0 - - - - - - -
17/11:00pm 19.9 S 16 19 1021.8 - 0.0 - - - - - - -
17/10:30pm 20.1 S 17 19 1021.7 - 0.0 - - - - - - -
17/10:00pm 20.1 S 17 19 1021.7 - 0.0 - - - - - - -
17/09:30pm 20.0 S 17 22 1021.7 - 0.0 - - - - - - -
17/09:00pm 20.2 SSW 14 18 1021.5 - 0.0 - - - - - - -
17/08:30pm 20.2 SSW 11 15 1021.3 - 0.0 - - - - - - -
17/08:00pm 20.4 SSW 10 13 1020.9 - 0.0 - - - - - - -
17/07:30pm 20.4 S 9 12 1020.5 - 0.0 - - - - - - -
17/07:00pm 20.6 S 12 14 1020.2 - 0.0 - - - - - - -
17/06:30pm 20.6 S 11 14 1019.4 - 0.0 - - - - - - -
17/06:00pm 20.7 E 5 6 1018.1 - 0.0 - - - - - - -
17/05:30pm 20.9 E 6 8 1017.8 - 0.0 - - - - - - -
17/05:00pm 21.1 E 6 8 1017.7 - 0.0 - - - - - - -
17/04:30pm 21.5 E 7 9 1017.5 - 0.0 - - - - - - -
17/04:00pm 22.0 E 9 11 1017.4 - 0.0 - - - - - - -
17/03:30pm 22.4 E 8 11 1017.4 - 0.0 - - - - - - -
17/03:00pm 22.7 ESE 10 12 1017.3 - 0.0 - - - - - - -
17/02:30pm 22.7 ESE 7 9 1017.2 - 0.0 - - - - - - -
17/02:00pm 24.1 E 9 11 1017.0 - 0.0 - - - - - - -
17/01:30pm 23.5 E 10 15 1017.1 - 0.0 - - - - - - -
17/01:00pm 24.4 ESE 10 12 1017.4 - 0.0 - - - - - - -

Other Formats:

Comma delimited format used in spreadsheet applications
http://www.bom.gov.au/fwo/IDW60701/IDW60701.94644.axf

JavaScript Object Notation format (JSON) in row-major order
http://www.bom.gov.au/fwo/IDW60701/IDW60701.94644.json